sensor_id;sensor_type;location;lat;lon;timestamp;temperature;humidity
41310;DHT22;27057;51.438;-0.010;2023-07-13T00:02:01;16.60;99.90
41310;DHT22;27057;51.438;-0.010;2023-07-13T00:04:28;16.50;99.90
41310;DHT22;27057;51.438;-0.010;2023-07-13T00:06:59;16.50;99.90
41310;DHT22;27057;51.438;-0.010;2023-07-13T00:09:27;16.50;99.90
41310;DHT22;27057;51.438;-0.010;2023-07-13T00:11:57;16.40;99.90
41310;DHT22;27057;51.438;-0.010;2023-07-13T00:14:26;16.40;99.90
41310;DHT22;27057;51.438;-0.010;2023-07-13T00:16:54;16.40;99.90
41310;DHT22;27057;51.438;-0.010;2023-07-13T00:19:23;16.40;99.90
41310;DHT22;27057;51.438;-0.010;2023-07-13T00:21:50;16.40;99.90
41310;DHT22;27057;51.438;-0.010;2023-07-13T00:24:18;16.40;99.90
41310;DHT22;27057;51.438;-0.010;2023-07-13T00:26:51;16.30;99.90
41310;DHT22;27057;51.438;-0.010;2023-07-13T00:29:18;16.40;99.90
41310;DHT22;27057;51.438;-0.010;2023-07-13T00:31:48;16.30;99.90
41310;DHT22;27057;51.438;-0.010;2023-07-13T00:34:16;16.30;99.90
41310;DHT22;27057;51.438;-0.010;2023-07-13T00:36:44;16.30;99.90
41310;DHT22;27057;51.438;-0.010;2023-07-13T00:39:12;16.20;99.90
41310;DHT22;27057;51.438;-0.010;2023-07-13T00:41:39;16.30;99.90
41310;DHT22;27057;51.438;-0.010;2023-07-13T00:44:19;16.20;99.90
41310;DHT22;27057;51.438;-0.010;2023-07-13T00:46:46;16.20;99.90
41310;DHT22;27057;51.438;-0.010;2023-07-13T00:49:18;16.20;99.90
41310;DHT22;27057;51.438;-0.010;2023-07-13T00:51:49;16.20;99.90
41310;DHT22;27057;51.438;-0.010;2023-07-13T00:54:24;16.10;99.90
41310;DHT22;27057;51.438;-0.010;2023-07-13T00:56:55;16.00;99.90
41310;DHT22;27057;51.438;-0.010;2023-07-13T00:59:25;16.10;99.90
41310;DHT22;27057;51.438;-0.010;2023-07-13T01:01:53;16.00;99.90
41310;DHT22;27057;51.438;-0.010;2023-07-13T01:04:26;16.00;99.90
41310;DHT22;27057;51.438;-0.010;2023-07-13T01:06:55;15.90;99.90
41310;DHT22;27057;51.438;-0.010;2023-07-13T01:09:23;16.00;99.90
41310;DHT22;27057;51.438;-0.010;2023-07-13T01:11:50;15.90;99.90
41310;DHT22;27057;51.438;-0.010;2023-07-13T01:14:18;15.90;99.90
41310;DHT22;27057;51.438;-0.010;2023-07-13T01:16:47;15.90;99.90
41310;DHT22;27057;51.438;-0.010;2023-07-13T01:19:44;15.90;99.90
41310;DHT22;27057;51.438;-0.010;2023-07-13T01:22:14;15.80;99.90
41310;DHT22;27057;51.438;-0.010;2023-07-13T01:24:46;15.80;99.90
41310;DHT22;27057;51.438;-0.010;2023-07-13T01:27:17;15.70;99.90
41310;DHT22;27057;51.438;-0.010;2023-07-13T01:29:47;15.70;99.90
41310;DHT22;27057;51.438;-0.010;2023-07-13T01:32:23;15.70;99.90
41310;DHT22;27057;51.438;-0.010;2023-07-13T01:34:55;15.70;99.90
41310;DHT22;27057;51.438;-0.010;2023-07-13T01:37:24;15.70;99.90
41310;DHT22;27057;51.438;-0.010;2023-07-13T01:39:52;15.70;99.90
41310;DHT22;27057;51.438;-0.010;2023-07-13T01:42:19;15.60;99.90
41310;DHT22;27057;51.438;-0.010;2023-07-13T01:44:48;15.60;99.90
41310;DHT22;27057;51.438;-0.010;2023-07-13T01:47:15;15.60;99.90
41310;DHT22;27057;51.438;-0.010;2023-07-13T01:49:43;15.60;99.90
41310;DHT22;27057;51.438;-0.010;2023-07-13T01:52:13;15.60;99.90
41310;DHT22;27057;51.438;-0.010;2023-07-13T01:54:41;15.60;99.90
41310;DHT22;27057;51.438;-0.010;2023-07-13T01:57:09;15.60;99.90
41310;DHT22;27057;51.438;-0.010;2023-07-13T01:59:36;15.50;99.90
41310;DHT22;27057;51.438;-0.010;2023-07-13T02:02:06;15.50;99.90
41310;DHT22;27057;51.438;-0.010;2023-07-13T02:04:34;15.50;99.90
41310;DHT22;27057;51.438;-0.010;2023-07-13T02:07:01;15.50;99.90
41310;DHT22;27057;51.438;-0.010;2023-07-13T02:09:29;15.40;99.90
41310;DHT22;27057;51.438;-0.010;2023-07-13T02:11:56;15.40;99.90
41310;DHT22;27057;51.438;-0.010;2023-07-13T02:14:30;15.40;99.90
41310;DHT22;27057;51.438;-0.010;2023-07-13T02:16:57;15.40;99.90
41310;DHT22;27057;51.438;-0.010;2023-07-13T02:19:24;15.40;99.90
41310;DHT22;27057;51.438;-0.010;2023-07-13T02:21:52;15.40;99.90
41310;DHT22;27057;51.438;-0.010;2023-07-13T02:24:19;15.30;99.90
41310;DHT22;27057;51.438;-0.010;2023-07-13T02:26:48;15.30;99.90
41310;DHT22;27057;51.438;-0.010;2023-07-13T02:29:15;15.30;99.90
41310;DHT22;27057;51.438;-0.010;2023-07-13T02:31:45;15.30;99.90
41310;DHT22;27057;51.438;-0.010;2023-07-13T02:34:13;15.30;99.90
41310;DHT22;27057;51.438;-0.010;2023-07-13T02:36:40;15.30;99.90
41310;DHT22;27057;51.438;-0.010;2023-07-13T02:39:09;15.20;99.90
41310;DHT22;27057;51.438;-0.010;2023-07-13T02:41:38;15.20;99.90
41310;DHT22;27057;51.438;-0.010;2023-07-13T02:44:06;15.20;99.90
41310;DHT22;27057;51.438;-0.010;2023-07-13T02:46:36;15.10;99.90
41310;DHT22;27057;51.438;-0.010;2023-07-13T02:49:05;15.20;99.90
41310;DHT22;27057;51.438;-0.010;2023-07-13T02:51:33;15.20;99.90
41310;DHT22;27057;51.438;-0.010;2023-07-13T02:54:02;15.10;99.90
41310;DHT22;27057;51.438;-0.010;2023-07-13T02:56:32;15.20;99.90
41310;DHT22;27057;51.438;-0.010;2023-07-13T02:58:59;15.20;99.90
41310;DHT22;27057;51.438;-0.010;2023-07-13T03:01:26;15.20;99.90
41310;DHT22;27057;51.438;-0.010;2023-07-13T03:03:54;15.20;99.90
41310;DHT22;27057;51.438;-0.010;2023-07-13T03:06:22;15.20;99.90
41310;DHT22;27057;51.438;-0.010;2023-07-13T03:08:53;15.20;99.90
41310;DHT22;27057;51.438;-0.010;2023-07-13T03:11:21;15.20;99.90
41310;DHT22;27057;51.438;-0.010;2023-07-13T03:13:55;15.10;99.90
41310;DHT22;27057;51.438;-0.010;2023-07-13T03:16:23;15.10;99.90
41310;DHT22;27057;51.438;-0.010;2023-07-13T03:18:52;15.10;99.90
41310;DHT22;27057;51.438;-0.010;2023-07-13T03:21:20;15.10;99.90
41310;DHT22;27057;51.438;-0.010;2023-07-13T03:23:47;15.10;99.90
41310;DHT22;27057;51.438;-0.010;2023-07-13T03:26:18;15.10;99.90
41310;DHT22;27057;51.438;-0.010;2023-07-13T03:28:46;15.10;99.90
41310;DHT22;27057;51.438;-0.010;2023-07-13T03:31:20;15.10;99.90
41310;DHT22;27057;51.438;-0.010;2023-07-13T03:33:48;15.10;99.90
41310;DHT22;27057;51.438;-0.010;2023-07-13T03:36:24;15.10;99.90
41310;DHT22;27057;51.438;-0.010;2023-07-13T03:38:58;15.10;99.90
41310;DHT22;27057;51.438;-0.010;2023-07-13T03:41:33;15.10;99.90
41310;DHT22;27057;51.438;-0.010;2023-07-13T03:44:00;15.10;99.90
41310;DHT22;27057;51.438;-0.010;2023-07-13T03:46:28;15.10;99.90
41310;DHT22;27057;51.438;-0.010;2023-07-13T03:48:57;15.10;99.90
41310;DHT22;27057;51.438;-0.010;2023-07-13T03:51:25;15.00;99.90
41310;DHT22;27057;51.438;-0.010;2023-07-13T03:53:52;15.10;99.90
41310;DHT22;27057;51.438;-0.010;2023-07-13T03:56:20;15.10;99.90
41310;DHT22;27057;51.438;-0.010;2023-07-13T03:58:49;15.00;99.90
41310;DHT22;27057;51.438;-0.010;2023-07-13T04:01:20;15.00;99.90
41310;DHT22;27057;51.438;-0.010;2023-07-13T04:03:48;15.00;99.90
41310;DHT22;27057;51.438;-0.010;2023-07-13T04:06:22;15.00;99.90
41310;DHT22;27057;51.438;-0.010;2023-07-13T04:08:53;15.10;99.90
41310;DHT22;27057;51.438;-0.010;2023-07-13T04:11:23;15.10;99.90
41310;DHT22;27057;51.438;-0.010;2023-07-13T04:13:51;15.00;99.90
41310;DHT22;27057;51.438;-0.010;2023-07-13T04:16:19;15.00;99.90
41310;DHT22;27057;51.438;-0.010;2023-07-13T04:18:47;15.00;99.90
41310;DHT22;27057;51.438;-0.010;2023-07-13T04:21:16;15.00;99.90
41310;DHT22;27057;51.438;-0.010;2023-07-13T04:23:43;15.00;99.90
41310;DHT22;27057;51.438;-0.010;2023-07-13T04:26:10;15.00;99.90
41310;DHT22;27057;51.438;-0.010;2023-07-13T04:28:39;15.00;99.90
41310;DHT22;27057;51.438;-0.010;2023-07-13T04:31:06;15.00;99.90
41310;DHT22;27057;51.438;-0.010;2023-07-13T04:33:33;15.00;99.90
41310;DHT22;27057;51.438;-0.010;2023-07-13T04:36:01;15.00;99.90
41310;DHT22;27057;51.438;-0.010;2023-07-13T04:38:30;15.00;99.90
41310;DHT22;27057;51.438;-0.010;2023-07-13T04:41:04;15.00;99.90
41310;DHT22;27057;51.438;-0.010;2023-07-13T04:43:32;15.00;99.90
41310;DHT22;27057;51.438;-0.010;2023-07-13T04:46:04;15.00;99.90
41310;DHT22;27057;51.438;-0.010;2023-07-13T04:48:33;15.00;99.90
41310;DHT22;27057;51.438;-0.010;2023-07-13T04:51:01;15.00;99.90
41310;DHT22;27057;51.438;-0.010;2023-07-13T04:53:29;15.10;99.90
41310;DHT22;27057;51.438;-0.010;2023-07-13T04:55:57;15.10;99.90
41310;DHT22;27057;51.438;-0.010;2023-07-13T04:58:25;15.10;99.90
41310;DHT22;27057;51.438;-0.010;2023-07-13T05:00:53;15.10;99.90
41310;DHT22;27057;51.438;-0.010;2023-07-13T05:03:26;15.10;99.90
41310;DHT22;27057;51.438;-0.010;2023-07-13T05:06:02;15.20;99.90
41310;DHT22;27057;51.438;-0.010;2023-07-13T05:08:30;15.20;99.90
41310;DHT22;27057;51.438;-0.010;2023-07-13T05:11:00;15.20;99.90
41310;DHT22;27057;51.438;-0.010;2023-07-13T05:13:28;15.20;99.90
41310;DHT22;27057;51.438;-0.010;2023-07-13T05:15:58;15.30;99.90
41310;DHT22;27057;51.438;-0.010;2023-07-13T05:18:26;15.30;99.90
41310;DHT22;27057;51.438;-0.010;2023-07-13T05:21:12;15.30;99.90
41310;DHT22;27057;51.438;-0.010;2023-07-13T05:23:40;15.40;99.90
41310;DHT22;27057;51.438;-0.010;2023-07-13T05:26:11;15.40;99.90
41310;DHT22;27057;51.438;-0.010;2023-07-13T05:28:39;15.50;99.90
41310;DHT22;27057;51.438;-0.010;2023-07-13T05:31:08;15.50;99.90
41310;DHT22;27057;51.438;-0.010;2023-07-13T05:33:37;15.50;99.90
41310;DHT22;27057;51.438;-0.010;2023-07-13T05:36:04;15.60;99.90
41310;DHT22;27057;51.438;-0.010;2023-07-13T05:38:32;15.60;99.90
41310;DHT22;27057;51.438;-0.010;2023-07-13T05:41:00;15.60;99.90
41310;DHT22;27057;51.438;-0.010;2023-07-13T05:43:32;15.70;99.90
41310;DHT22;27057;51.438;-0.010;2023-07-13T05:45:59;15.70;99.90
41310;DHT22;27057;51.438;-0.010;2023-07-13T05:48:27;15.80;99.90
41310;DHT22;27057;51.438;-0.010;2023-07-13T05:50:54;15.80;99.90
41310;DHT22;27057;51.438;-0.010;2023-07-13T05:53:21;15.90;99.90
41310;DHT22;27057;51.438;-0.010;2023-07-13T05:55:49;15.90;99.90
41310;DHT22;27057;51.438;-0.010;2023-07-13T05:58:20;16.00;99.90
41310;DHT22;27057;51.438;-0.010;2023-07-13T06:00:48;16.00;99.90
41310;DHT22;27057;51.438;-0.010;2023-07-13T06:03:16;16.20;99.90
41310;DHT22;27057;51.438;-0.010;2023-07-13T06:05:43;16.20;99.90
41310;DHT22;27057;51.438;-0.010;2023-07-13T06:08:11;16.20;99.90
41310;DHT22;27057;51.438;-0.010;2023-07-13T06:10:38;16.30;99.90
41310;DHT22;27057;51.438;-0.010;2023-07-13T06:13:05;16.40;99.90
41310;DHT22;27057;51.438;-0.010;2023-07-13T06:15:33;16.40;99.90
41310;DHT22;27057;51.438;-0.010;2023-07-13T06:18:00;16.40;99.90
41310;DHT22;27057;51.438;-0.010;2023-07-13T06:20:28;16.40;99.90
41310;DHT22;27057;51.438;-0.010;2023-07-13T06:22:56;16.40;99.90
41310;DHT22;27057;51.438;-0.010;2023-07-13T06:25:24;16.50;99.90
41310;DHT22;27057;51.438;-0.010;2023-07-13T06:27:51;16.50;99.90
41310;DHT22;27057;51.438;-0.010;2023-07-13T06:30:18;16.60;99.90
41310;DHT22;27057;51.438;-0.010;2023-07-13T06:32:46;16.70;99.90
41310;DHT22;27057;51.438;-0.010;2023-07-13T06:35:14;16.80;99.90
41310;DHT22;27057;51.438;-0.010;2023-07-13T06:37:41;16.90;99.90
41310;DHT22;27057;51.438;-0.010;2023-07-13T06:40:09;17.00;99.90
41310;DHT22;27057;51.438;-0.010;2023-07-13T06:42:36;17.10;99.90
41310;DHT22;27057;51.438;-0.010;2023-07-13T06:45:06;17.10;99.90
41310;DHT22;27057;51.438;-0.010;2023-07-13T06:47:33;17.10;99.90
41310;DHT22;27057;51.438;-0.010;2023-07-13T06:50:01;17.20;99.90
41310;DHT22;27057;51.438;-0.010;2023-07-13T06:52:28;17.30;99.90
41310;DHT22;27057;51.438;-0.010;2023-07-13T06:54:56;17.20;99.90
41310;DHT22;27057;51.438;-0.010;2023-07-13T06:57:23;17.30;99.90
41310;DHT22;27057;51.438;-0.010;2023-07-13T06:59:50;17.30;99.90
41310;DHT22;27057;51.438;-0.010;2023-07-13T07:02:18;17.30;99.90
41310;DHT22;27057;51.438;-0.010;2023-07-13T07:04:45;17.30;99.90
41310;DHT22;27057;51.438;-0.010;2023-07-13T07:07:12;17.30;99.90
41310;DHT22;27057;51.438;-0.010;2023-07-13T07:09:40;17.30;99.90
41310;DHT22;27057;51.438;-0.010;2023-07-13T07:12:07;17.40;99.90
41310;DHT22;27057;51.438;-0.010;2023-07-13T07:14:35;17.30;99.90
41310;DHT22;27057;51.438;-0.010;2023-07-13T07:17:02;17.40;99.90
41310;DHT22;27057;51.438;-0.010;2023-07-13T07:19:30;17.50;99.90
41310;DHT22;27057;51.438;-0.010;2023-07-13T07:21:58;17.60;99.90
41310;DHT22;27057;51.438;-0.010;2023-07-13T07:24:25;17.70;99.90
41310;DHT22;27057;51.438;-0.010;2023-07-13T07:26:52;17.80;99.90
41310;DHT22;27057;51.438;-0.010;2023-07-13T07:29:23;17.80;99.90
41310;DHT22;27057;51.438;-0.010;2023-07-13T07:31:56;17.80;99.90
41310;DHT22;27057;51.438;-0.010;2023-07-13T07:34:26;17.80;99.90
41310;DHT22;27057;51.438;-0.010;2023-07-13T07:36:54;17.90;99.90
41310;DHT22;27057;51.438;-0.010;2023-07-13T07:39:24;18.10;99.90
41310;DHT22;27057;51.438;-0.010;2023-07-13T07:41:51;18.20;99.90
41310;DHT22;27057;51.438;-0.010;2023-07-13T07:44:22;18.20;99.90
41310;DHT22;27057;51.438;-0.010;2023-07-13T07:46:49;18.20;99.90
41310;DHT22;27057;51.438;-0.010;2023-07-13T07:49:17;18.20;99.90
41310;DHT22;27057;51.438;-0.010;2023-07-13T07:51:44;18.20;99.90
41310;DHT22;27057;51.438;-0.010;2023-07-13T07:54:11;18.30;99.90
41310;DHT22;27057;51.438;-0.010;2023-07-13T07:56:48;18.30;99.90
41310;DHT22;27057;51.438;-0.010;2023-07-13T07:59:37;18.30;99.90
41310;DHT22;27057;51.438;-0.010;2023-07-13T08:02:09;18.30;99.90
41310;DHT22;27057;51.438;-0.010;2023-07-13T08:04:57;18.40;99.90
41310;DHT22;27057;51.438;-0.010;2023-07-13T08:07:28;18.30;99.90
41310;DHT22;27057;51.438;-0.010;2023-07-13T08:09:57;18.30;99.90
41310;DHT22;27057;51.438;-0.010;2023-07-13T08:12:24;18.30;99.90
41310;DHT22;27057;51.438;-0.010;2023-07-13T08:14:54;18.40;99.90
41310;DHT22;27057;51.438;-0.010;2023-07-13T08:17:25;18.40;99.90
41310;DHT22;27057;51.438;-0.010;2023-07-13T08:19:53;18.40;99.90
41310;DHT22;27057;51.438;-0.010;2023-07-13T08:22:20;18.50;99.90
41310;DHT22;27057;51.438;-0.010;2023-07-13T08:24:48;18.50;99.90
41310;DHT22;27057;51.438;-0.010;2023-07-13T08:27:27;18.50;99.90
41310;DHT22;27057;51.438;-0.010;2023-07-13T08:29:55;18.50;99.90
41310;DHT22;27057;51.438;-0.010;2023-07-13T08:32:23;18.50;99.90
41310;DHT22;27057;51.438;-0.010;2023-07-13T08:34:51;18.50;99.90
41310;DHT22;27057;51.438;-0.010;2023-07-13T08:37:19;18.60;99.90
41310;DHT22;27057;51.438;-0.010;2023-07-13T08:39:47;18.50;99.90
41310;DHT22;27057;51.438;-0.010;2023-07-13T08:45:00;18.60;99.90
41310;DHT22;27057;51.438;-0.010;2023-07-13T08:47:30;18.70;99.90
41310;DHT22;27057;51.438;-0.010;2023-07-13T08:49:59;18.80;99.90
41310;DHT22;27057;51.438;-0.010;2023-07-13T08:52:36;18.90;99.90
41310;DHT22;27057;51.438;-0.010;2023-07-13T08:55:13;19.00;99.90
41310;DHT22;27057;51.438;-0.010;2023-07-13T08:57:42;19.00;99.90
41310;DHT22;27057;51.438;-0.010;2023-07-13T09:00:11;19.00;99.90
41310;DHT22;27057;51.438;-0.010;2023-07-13T09:07:48;19.10;99.90
41310;DHT22;27057;51.438;-0.010;2023-07-13T09:10:28;19.20;99.90
41310;DHT22;27057;51.438;-0.010;2023-07-13T09:15:43;19.20;99.90
41310;DHT22;27057;51.438;-0.010;2023-07-13T09:18:26;19.40;99.90
41310;DHT22;27057;51.438;-0.010;2023-07-13T09:21:08;19.50;99.90
41310;DHT22;27057;51.438;-0.010;2023-07-13T09:23:37;19.60;99.90
41310;DHT22;27057;51.438;-0.010;2023-07-13T09:26:17;19.80;99.90
41310;DHT22;27057;51.438;-0.010;2023-07-13T09:28:48;20.10;99.90
41310;DHT22;27057;51.438;-0.010;2023-07-13T09:31:36;20.20;99.90
41310;DHT22;27057;51.438;-0.010;2023-07-13T09:34:12;20.30;99.90
41310;DHT22;27057;51.438;-0.010;2023-07-13T09:36:39;20.30;99.90
41310;DHT22;27057;51.438;-0.010;2023-07-13T09:47:28;20.40;99.90
41310;DHT22;27057;51.438;-0.010;2023-07-13T09:50:06;20.40;99.90
41310;DHT22;27057;51.438;-0.010;2023-07-13T09:52:44;20.50;99.90
41310;DHT22;27057;51.438;-0.010;2023-07-13T09:55:39;20.50;99.90
41310;DHT22;27057;51.438;-0.010;2023-07-13T09:58:14;20.60;99.90
41310;DHT22;27057;51.438;-0.010;2023-07-13T10:00:43;20.80;99.90
41310;DHT22;27057;51.438;-0.010;2023-07-13T10:03:21;20.90;99.90
41310;DHT22;27057;51.438;-0.010;2023-07-13T10:05:51;20.80;99.90
41310;DHT22;27057;51.438;-0.010;2023-07-13T10:08:27;20.80;99.90
41310;DHT22;27057;51.438;-0.010;2023-07-13T10:11:00;20.80;99.90
41310;DHT22;27057;51.438;-0.010;2023-07-13T10:13:35;20.80;99.90
41310;DHT22;27057;51.438;-0.010;2023-07-13T10:16:06;20.80;99.90
41310;DHT22;27057;51.438;-0.010;2023-07-13T10:18:57;20.80;99.90
41310;DHT22;27057;51.438;-0.010;2023-07-13T10:21:34;20.70;99.90
41310;DHT22;27057;51.438;-0.010;2023-07-13T10:24:12;20.60;99.90
41310;DHT22;27057;51.438;-0.010;2023-07-13T10:27:33;20.60;99.90
41310;DHT22;27057;51.438;-0.010;2023-07-13T10:29:41;20.50;99.90
41310;DHT22;27057;51.438;-0.010;2023-07-13T10:32:12;20.60;99.90
41310;DHT22;27057;51.438;-0.010;2023-07-13T10:34:43;20.70;99.90
41310;DHT22;27057;51.438;-0.010;2023-07-13T10:37:18;20.80;99.90
41310;DHT22;27057;51.438;-0.010;2023-07-13T10:39:48;20.80;99.90
41310;DHT22;27057;51.438;-0.010;2023-07-13T10:42:25;20.80;99.90
41310;DHT22;27057;51.438;-0.010;2023-07-13T10:44:54;21.10;99.90
41310;DHT22;27057;51.438;-0.010;2023-07-13T10:47:22;20.80;99.90
41310;DHT22;27057;51.438;-0.010;2023-07-13T10:49:53;20.80;99.90
41310;DHT22;27057;51.438;-0.010;2023-07-13T10:55:04;20.70;99.90
41310;DHT22;27057;51.438;-0.010;2023-07-13T10:57:42;20.20;99.90
41310;DHT22;27057;51.438;-0.010;2023-07-13T11:00:17;20.80;99.90
41310;DHT22;27057;51.438;-0.010;2023-07-13T11:02:56;20.70;99.90
41310;DHT22;27057;51.438;-0.010;2023-07-13T11:05:26;20.70;99.90
41310;DHT22;27057;51.438;-0.010;2023-07-13T11:08:04;20.70;99.90
41310;DHT22;27057;51.438;-0.010;2023-07-13T11:10:53;20.90;99.90
41310;DHT22;27057;51.438;-0.010;2023-07-13T11:18:48;21.10;99.90
41310;DHT22;27057;51.438;-0.010;2023-07-13T11:21:25;21.40;99.90
41310;DHT22;27057;51.438;-0.010;2023-07-13T11:24:16;21.60;99.90
41310;DHT22;27057;51.438;-0.010;2023-07-13T11:31:56;21.80;99.90
41310;DHT22;27057;51.438;-0.010;2023-07-13T11:34:34;21.80;99.90
41310;DHT22;27057;51.438;-0.010;2023-07-13T11:37:03;21.80;99.90
41310;DHT22;27057;51.438;-0.010;2023-07-13T11:39:33;21.80;99.90
41310;DHT22;27057;51.438;-0.010;2023-07-13T11:42:05;21.80;99.90
41310;DHT22;27057;51.438;-0.010;2023-07-13T11:44:34;21.80;99.90
41310;DHT22;27057;51.438;-0.010;2023-07-13T11:47:10;21.70;99.90
41310;DHT22;27057;51.438;-0.010;2023-07-13T11:49:49;21.70;99.90
41310;DHT22;27057;51.438;-0.010;2023-07-13T11:52:22;21.70;99.90
41310;DHT22;27057;51.438;-0.010;2023-07-13T11:54:52;21.50;99.90
41310;DHT22;27057;51.438;-0.010;2023-07-13T11:57:32;21.40;99.90
41310;DHT22;27057;51.438;-0.010;2023-07-13T12:00:04;21.40;99.90
41310;DHT22;27057;51.438;-0.010;2023-07-13T12:02:37;21.30;99.90
41310;DHT22;27057;51.438;-0.010;2023-07-13T12:06:06;21.30;99.90
41310;DHT22;27057;51.438;-0.010;2023-07-13T12:08:50;21.10;99.90
41310;DHT22;27057;51.438;-0.010;2023-07-13T12:11:18;21.10;99.90
41310;DHT22;27057;51.438;-0.010;2023-07-13T12:13:46;20.90;99.90
41310;DHT22;27057;51.438;-0.010;2023-07-13T12:18:44;20.50;99.90
41310;DHT22;27057;51.438;-0.010;2023-07-13T12:21:17;20.70;99.90
41310;DHT22;27057;51.438;-0.010;2023-07-13T12:23:48;20.90;99.90
41310;DHT22;27057;51.438;-0.010;2023-07-13T12:26:17;21.20;99.90
41310;DHT22;27057;51.438;-0.010;2023-07-13T12:28:52;21.70;99.90
41310;DHT22;27057;51.438;-0.010;2023-07-13T12:31:36;21.90;99.90
41310;DHT22;27057;51.438;-0.010;2023-07-13T12:34:14;22.10;99.90
41310;DHT22;27057;51.438;-0.010;2023-07-13T12:39:38;22.00;99.90
41310;DHT22;27057;51.438;-0.010;2023-07-13T12:44:45;21.80;99.90
41310;DHT22;27057;51.438;-0.010;2023-07-13T12:47:14;21.90;99.90
41310;DHT22;27057;51.438;-0.010;2023-07-13T12:49:53;21.70;99.90
41310;DHT22;27057;51.438;-0.010;2023-07-13T12:55:03;21.50;99.90
41310;DHT22;27057;51.438;-0.010;2023-07-13T12:57:39;21.30;99.90
41310;DHT22;27057;51.438;-0.010;2023-07-13T13:00:30;21.30;99.90
41310;DHT22;27057;51.438;-0.010;2023-07-13T13:03:06;21.30;99.90
41310;DHT22;27057;51.438;-0.010;2023-07-13T13:06:06;21.20;99.90
41310;DHT22;27057;51.438;-0.010;2023-07-13T13:08:35;21.10;99.90
41310;DHT22;27057;51.438;-0.010;2023-07-13T13:11:03;21.20;99.90
41310;DHT22;27057;51.438;-0.010;2023-07-13T13:13:30;21.20;99.90
41310;DHT22;27057;51.438;-0.010;2023-07-13T13:16:04;21.20;99.90
41310;DHT22;27057;51.438;-0.010;2023-07-13T13:18:33;21.20;99.90
41310;DHT22;27057;51.438;-0.010;2023-07-13T13:21:02;21.20;99.90
41310;DHT22;27057;51.438;-0.010;2023-07-13T13:23:30;21.20;99.90
41310;DHT22;27057;51.438;-0.010;2023-07-13T13:25:57;21.30;99.90
41310;DHT22;27057;51.438;-0.010;2023-07-13T13:28:25;21.30;99.90
41310;DHT22;27057;51.438;-0.010;2023-07-13T13:30:53;21.30;99.90
41310;DHT22;27057;51.438;-0.010;2023-07-13T13:33:21;21.40;99.90
41310;DHT22;27057;51.438;-0.010;2023-07-13T13:35:49;21.80;99.90
41310;DHT22;27057;51.438;-0.010;2023-07-13T13:38:23;22.30;99.90
41310;DHT22;27057;51.438;-0.010;2023-07-13T13:40:51;23.00;99.90
41310;DHT22;27057;51.438;-0.010;2023-07-13T13:43:24;23.60;99.90
41310;DHT22;27057;51.438;-0.010;2023-07-13T13:45:57;23.80;99.90
41310;DHT22;27057;51.438;-0.010;2023-07-13T13:48:35;23.90;99.90
41310;DHT22;27057;51.438;-0.010;2023-07-13T13:51:16;24.00;99.90
41310;DHT22;27057;51.438;-0.010;2023-07-13T13:53:45;24.00;99.90
41310;DHT22;27057;51.438;-0.010;2023-07-13T13:56:14;23.90;99.90
41310;DHT22;27057;51.438;-0.010;2023-07-13T13:58:41;23.90;99.90
41310;DHT22;27057;51.438;-0.010;2023-07-13T14:01:17;23.50;99.90
41310;DHT22;27057;51.438;-0.010;2023-07-13T14:03:46;23.40;99.90
41310;DHT22;27057;51.438;-0.010;2023-07-13T14:06:16;23.20;99.90
41310;DHT22;27057;51.438;-0.010;2023-07-13T14:08:43;23.10;99.90
41310;DHT22;27057;51.438;-0.010;2023-07-13T14:11:16;23.00;99.90
41310;DHT22;27057;51.438;-0.010;2023-07-13T14:13:49;22.80;99.90
41310;DHT22;27057;51.438;-0.010;2023-07-13T14:16:20;22.50;99.90
41310;DHT22;27057;51.438;-0.010;2023-07-13T14:18:49;22.20;99.90
41310;DHT22;27057;51.438;-0.010;2023-07-13T14:21:20;21.90;99.90
41310;DHT22;27057;51.438;-0.010;2023-07-13T14:23:48;21.80;99.90
41310;DHT22;27057;51.438;-0.010;2023-07-13T14:26:17;21.60;99.90
41310;DHT22;27057;51.438;-0.010;2023-07-13T14:28:48;21.60;99.90
41310;DHT22;27057;51.438;-0.010;2023-07-13T14:31:17;21.60;99.90
41310;DHT22;27057;51.438;-0.010;2023-07-13T14:33:44;21.70;99.90
41310;DHT22;27057;51.438;-0.010;2023-07-13T14:38:51;22.10;99.90
41310;DHT22;27057;51.438;-0.010;2023-07-13T14:41:19;22.30;99.90
41310;DHT22;27057;51.438;-0.010;2023-07-13T14:43:47;23.00;99.90
41310;DHT22;27057;51.438;-0.010;2023-07-13T14:46:29;23.70;99.90
41310;DHT22;27057;51.438;-0.010;2023-07-13T14:49:30;24.40;99.90
41310;DHT22;27057;51.438;-0.010;2023-07-13T14:52:00;24.60;99.90
41310;DHT22;27057;51.438;-0.010;2023-07-13T14:54:28;25.00;99.90
41310;DHT22;27057;51.438;-0.010;2023-07-13T14:56:55;25.40;99.90
41310;DHT22;27057;51.438;-0.010;2023-07-13T14:59:22;25.40;99.90
41310;DHT22;27057;51.438;-0.010;2023-07-13T15:01:51;25.40;99.90
41310;DHT22;27057;51.438;-0.010;2023-07-13T15:04:18;25.10;99.90
41310;DHT22;27057;51.438;-0.010;2023-07-13T15:07:00;24.90;99.90
41310;DHT22;27057;51.438;-0.010;2023-07-13T15:09:29;24.70;99.90
41310;DHT22;27057;51.438;-0.010;2023-07-13T15:11:57;24.80;99.90
41310;DHT22;27057;51.438;-0.010;2023-07-13T15:14:25;24.50;99.90
41310;DHT22;27057;51.438;-0.010;2023-07-13T15:16:55;24.40;99.90
41310;DHT22;27057;51.438;-0.010;2023-07-13T15:19:23;24.20;99.90
41310;DHT22;27057;51.438;-0.010;2023-07-13T15:21:54;24.10;99.90
41310;DHT22;27057;51.438;-0.010;2023-07-13T15:24:24;24.50;99.90
41310;DHT22;27057;51.438;-0.010;2023-07-13T15:26:52;25.10;99.90
41310;DHT22;27057;51.438;-0.010;2023-07-13T15:29:19;25.70;99.90
41310;DHT22;27057;51.438;-0.010;2023-07-13T15:31:47;26.20;99.30
41310;DHT22;27057;51.438;-0.010;2023-07-13T15:34:16;26.30;98.90
41310;DHT22;27057;51.438;-0.010;2023-07-13T15:36:45;26.60;98.00
41310;DHT22;27057;51.438;-0.010;2023-07-13T15:39:16;26.70;97.90
41310;DHT22;27057;51.438;-0.010;2023-07-13T15:41:45;26.30;97.30
41310;DHT22;27057;51.438;-0.010;2023-07-13T15:44:28;25.80;97.80
41310;DHT22;27057;51.438;-0.010;2023-07-13T15:46:56;25.60;98.40
41310;DHT22;27057;51.438;-0.010;2023-07-13T15:49:24;25.40;98.60
41310;DHT22;27057;51.438;-0.010;2023-07-13T15:51:51;25.10;98.80
41310;DHT22;27057;51.438;-0.010;2023-07-13T15:54:19;24.70;99.10
41310;DHT22;27057;51.438;-0.010;2023-07-13T15:56:54;24.70;99.50
41310;DHT22;27057;51.438;-0.010;2023-07-13T15:59:22;24.60;99.60
41310;DHT22;27057;51.438;-0.010;2023-07-13T16:01:50;24.20;99.90
41310;DHT22;27057;51.438;-0.010;2023-07-13T16:04:18;23.90;99.90
41310;DHT22;27057;51.438;-0.010;2023-07-13T16:06:47;23.70;99.90
41310;DHT22;27057;51.438;-0.010;2023-07-13T16:09:19;23.50;99.90
41310;DHT22;27057;51.438;-0.010;2023-07-13T16:11:49;23.40;99.90
41310;DHT22;27057;51.438;-0.010;2023-07-13T16:14:17;23.30;99.90
41310;DHT22;27057;51.438;-0.010;2023-07-13T16:16:47;23.30;99.90
41310;DHT22;27057;51.438;-0.010;2023-07-13T16:19:18;23.40;99.90
41310;DHT22;27057;51.438;-0.010;2023-07-13T16:21:46;23.50;99.90
41310;DHT22;27057;51.438;-0.010;2023-07-13T16:24:20;23.50;99.90